Time;durP1;ratioP1;P1;durP2;ratioP2;P2;SDS_P1;SDS_P2;PMS_P1;PMS_P2;Temp;Humidity;BMP_temperature;BMP_pressure;BME280_temperature;BME280_humidity;BME280_pressure;Samples;Min_cycle;Max_cycle;Signal;HPM_P1;HPM_P2
2024/01/30 00:01:58;;;;;;;46.38;26.05;;;1.30;99.90;;;;;;5084026;28;20032;-90
2024/01/30 00:04:23;;;;;;;41.72;27.23;;;1.20;99.90;;;;;;5086230;28;20131;-91
2024/01/30 00:06:50;;;;;;;45.17;26.08;;;1.20;99.90;;;;;;5081039;28;20028;-91
2024/01/30 00:09:16;;;;;;;40.38;24.77;;;1.10;99.90;;;;;;5055858;28;20027;-92
2024/01/30 00:11:41;;;;;;;42.50;26.98;;;1.10;99.90;;;;;;5085248;28;20037;-93
2024/01/30 00:14:07;;;;;;;43.80;25.27;;;1.10;99.90;;;;;;5064752;28;20020;-92
2024/01/30 00:16:33;;;;;;;43.53;28.70;;;1.10;99.90;;;;;;5061860;28;20632;-92
2024/01/30 00:18:58;;;;;;;38.75;24.45;;;1.10;99.90;;;;;;5063746;28;20044;-91
2024/01/30 00:21:25;;;;;;;42.88;26.65;;;1.10;99.90;;;;;;5080094;28;20023;-90
2024/01/30 00:23:50;;;;;;;42.45;25.55;;;1.00;99.90;;;;;;5076899;28;20037;-91
2024/01/30 00:26:16;;;;;;;43.00;23.90;;;1.00;99.90;;;;;;5078347;28;20685;-90
2024/01/30 00:28:42;;;;;;;44.13;29.65;;;1.00;99.90;;;;;;5080298;28;20032;-92
2024/01/30 00:31:12;;;;;;;37.75;24.92;;;1.00;99.90;;;;;;5077856;28;20087;-90
2024/01/30 00:33:40;;;;;;;43.03;24.08;;;1.00;99.90;;;;;;5077515;28;20024;-91
2024/01/30 00:36:07;;;;;;;33.72;20.83;;;1.00;99.90;;;;;;5084105;28;20509;-92
2024/01/30 00:38:33;;;;;;;38.50;21.60;;;1.10;99.90;;;;;;5080791;28;20121;-89
2024/01/30 00:40:58;;;;;;;34.38;20.77;;;1.10;99.90;;;;;;5063873;28;20035;-91
2024/01/30 00:43:27;;;;;;;27.00;17.85;;;1.00;99.90;;;;;;5081388;28;20449;-91
2024/01/30 00:45:53;;;;;;;20.75;15.98;;;1.10;99.90;;;;;;5070680;28;20044;-91
2024/01/30 00:48:19;;;;;;;25.75;15.90;;;1.20;99.90;;;;;;5081221;28;20027;-93
2024/01/30 00:50:45;;;;;;;24.05;16.27;;;1.20;99.90;;;;;;5086590;28;20020;-91
2024/01/30 00:53:11;;;;;;;22.30;14.95;;;1.30;99.90;;;;;;5063245;28;20115;-90
2024/01/30 00:55:37;;;;;;;20.27;13.48;;;1.30;99.90;;;;;;5053087;28;20028;-90
2024/01/30 00:58:02;;;;;;;20.45;13.65;;;1.30;99.90;;;;;;5067561;28;20057;-91
2024/01/30 01:00:29;;;;;;;19.67;13.82;;;1.30;99.90;;;;;;5071980;28;20111;-92
2024/01/30 01:02:57;;;;;;;22.08;14.52;;;1.30;99.90;;;;;;5086868;28;20013;-89
2024/01/30 01:05:23;;;;;;;25.40;14.88;;;1.30;99.90;;;;;;5100432;28;20027;-91
2024/01/30 01:07:49;;;;;;;21.30;14.40;;;1.40;99.90;;;;;;5085569;28;20017;-92
2024/01/30 01:10:16;;;;;;;21.63;13.18;;;1.50;99.90;;;;;;5078643;28;20130;-90
2024/01/30 01:12:42;;;;;;;25.60;16.45;;;1.40;99.90;;;;;;5071171;28;20079;-91
2024/01/30 01:15:10;;;;;;;27.75;17.55;;;1.40;99.90;;;;;;5049313;28;20028;-91
2024/01/30 01:17:37;;;;;;;28.98;16.50;;;1.40;99.90;;;;;;5064401;28;20032;-91
2024/01/30 01:20:05;;;;;;;19.95;14.32;;;1.30;99.90;;;;;;5079297;28;20032;-90
2024/01/30 01:22:31;;;;;;;21.48;14.30;;;1.30;99.90;;;;;;5080455;28;20025;-93
2024/01/30 01:24:56;;;;;;;25.63;15.52;;;1.30;99.90;;;;;;5079831;28;20036;-90
2024/01/30 01:27:22;;;;;;;23.10;15.60;;;1.30;99.90;;;;;;5079818;28;20032;-90
2024/01/30 01:29:48;;;;;;;22.90;14.30;;;1.30;99.90;;;;;;5086063;28;20431;-91
2024/01/30 01:32:13;;;;;;;21.15;14.82;;;1.30;99.90;;;;;;5054405;28;20051;-89
2024/01/30 01:34:39;;;;;;;25.63;15.68;;;1.30;99.90;;;;;;5070230;28;20067;-93
2024/01/30 01:37:04;;;;;;;21.27;15.32;;;1.30;99.90;;;;;;5058962;28;20024;-89
2024/01/30 01:39:31;;;;;;;24.23;16.00;;;1.20;99.90;;;;;;5081972;28;20033;-91
2024/01/30 01:41:57;;;;;;;22.80;15.02;;;1.20;99.90;;;;;;5083145;28;20021;-89
2024/01/30 01:44:22;;;;;;;23.50;16.73;;;1.10;99.90;;;;;;5079139;28;20020;-91
2024/01/30 01:46:48;;;;;;;26.45;15.70;;;1.00;99.90;;;;;;5079472;28;20040;-92
2024/01/30 01:49:14;;;;;;;24.90;15.65;;;1.00;99.90;;;;;;5079684;28;20029;-91
2024/01/30 01:51:41;;;;;;;23.95;16.27;;;0.90;99.90;;;;;;5082159;28;20075;-92
2024/01/30 01:54:08;;;;;;;22.67;15.85;;;0.90;99.90;;;;;;5091785;28;20100;-90
2024/01/30 01:56:35;;;;;;;21.45;13.93;;;0.90;99.90;;;;;;5086995;28;20095;-90
2024/01/30 01:59:08;;;;;;;22.75;14.20;;;0.80;99.90;;;;;;5089004;28;20028;-91
2024/01/30 02:01:37;;;;;;;22.00;13.68;;;0.80;99.90;;;;;;5079604;28;20103;-92
2024/01/30 02:04:04;;;;;;;21.73;14.65;;;0.80;99.90;;;;;;5074414;28;20082;-91
2024/01/30 02:06:30;;;;;;;19.80;14.15;;;0.80;99.90;;;;;;5080114;28;20021;-89
2024/01/30 02:08:55;;;;;;;23.98;15.15;;;0.80;99.90;;;;;;5084023;28;20035;-90
2024/01/30 02:11:22;;;;;;;21.15;15.07;;;0.80;99.90;;;;;;5079888;28;20484;-90
2024/01/30 02:13:49;;;;;;;21.70;13.65;;;0.80;99.90;;;;;;5081205;28;20083;-92
2024/01/30 02:16:14;;;;;;;20.38;13.18;;;0.70;99.90;;;;;;5056396;28;20388;-92
2024/01/30 02:18:45;;;;;;;22.75;14.35;;;0.70;99.90;;;;;;5095645;28;20043;-90
2024/01/30 02:21:11;;;;;;;24.15;14.50;;;0.80;99.90;;;;;;5079813;28;20419;-92
2024/01/30 02:23:37;;;;;;;21.95;15.68;;;0.80;99.90;;;;;;5079902;28;20422;-92
2024/01/30 02:26:03;;;;;;;28.73;16.63;;;0.70;99.90;;;;;;5062263;28;21305;-90
2024/01/30 02:28:29;;;;;;;25.08;15.75;;;0.50;99.90;;;;;;5060959;28;20028;-92
2024/01/30 02:30:54;;;;;;;23.98;14.23;;;0.60;99.90;;;;;;5079220;28;20050;-90
2024/01/30 02:33:21;;;;;;;25.25;15.38;;;0.50;99.90;;;;;;5082980;28;20059;-91
2024/01/30 02:35:47;;;;;;;22.20;14.25;;;0.50;99.90;;;;;;5077872;28;20382;-92
2024/01/30 02:38:14;;;;;;;27.23;18.75;;;0.50;99.90;;;;;;5090004;28;20012;-91
2024/01/30 02:40:40;;;;;;;21.05;15.32;;;0.40;99.90;;;;;;5082971;28;20017;-91
2024/01/30 02:43:06;;;;;;;24.75;15.20;;;0.40;99.90;;;;;;5079816;28;20096;-89
2024/01/30 02:45:31;;;;;;;21.80;15.40;;;0.50;99.90;;;;;;5060132;28;20574;-90
2024/01/30 02:47:57;;;;;;;21.17;12.75;;;0.50;99.90;;;;;;5052693;28;20017;-90
2024/01/30 02:50:23;;;;;;;19.40;13.93;;;0.50;99.90;;;;;;5080464;28;20024;-91
2024/01/30 02:52:48;;;;;;;20.42;13.80;;;0.50;99.90;;;;;;5088694;28;20074;-92
2024/01/30 02:55:17;;;;;;;20.48;13.65;;;0.60;99.90;;;;;;5078584;28;20379;-90
2024/01/30 02:57:43;;;;;;;19.88;13.93;;;0.60;99.90;;;;;;5080712;28;20090;-90
2024/01/30 03:00:09;;;;;;;19.67;12.98;;;0.50;99.90;;;;;;5077933;28;20033;-90
2024/01/30 03:02:35;;;;;;;25.35;13.45;;;0.60;99.90;;;;;;5057365;28;20055;-92
2024/01/30 03:05:01;;;;;;;21.77;13.02;;;0.60;99.90;;;;;;5070876;28;20020;-91
2024/01/30 03:07:26;;;;;;;21.15;13.73;;;0.60;99.90;;;;;;5072129;28;20112;-90
2024/01/30 03:09:52;;;;;;;18.92;12.85;;;0.70;99.90;;;;;;5077834;28;20027;-91
2024/01/30 03:12:18;;;;;;;20.30;13.65;;;0.80;99.90;;;;;;5078223;28;20047;-90
2024/01/30 03:14:43;;;;;;;22.10;14.38;;;0.80;99.90;;;;;;5077960;28;20119;-92
2024/01/30 03:17:09;;;;;;;17.92;12.07;;;0.70;99.90;;;;;;5078789;28;20032;-90
2024/01/30 03:19:35;;;;;;;18.65;12.35;;;0.70;99.90;;;;;;5058544;28;20016;-91
2024/01/30 03:22:00;;;;;;;22.25;14.40;;;0.70;99.90;;;;;;5084481;28;20020;-90
2024/01/30 03:24:26;;;;;;;16.38;11.20;;;0.60;99.90;;;;;;5077649;28;20029;-92
2024/01/30 03:26:53;;;;;;;16.30;10.77;;;0.70;99.90;;;;;;5086692;28;20028;-88
2024/01/30 03:29:18;;;;;;;17.55;11.65;;;0.70;99.90;;;;;;5077320;28;20024;-93
2024/01/30 03:31:44;;;;;;;16.27;11.30;;;0.70;99.90;;;;;;5051965;28;20033;-92
2024/01/30 03:34:09;;;;;;;18.17;11.45;;;0.70;99.90;;;;;;5078659;28;20031;-91
2024/01/30 03:36:35;;;;;;;17.65;11.95;;;0.70;99.90;;;;;;5077830;28;20028;-91
2024/01/30 03:39:01;;;;;;;18.25;11.48;;;0.60;99.90;;;;;;5078804;28;20037;-91
2024/01/30 03:41:28;;;;;;;18.23;12.10;;;0.60;99.90;;;;;;5059951;28;20045;-89
2024/01/30 03:43:53;;;;;;;22.67;13.18;;;0.50;99.90;;;;;;5068351;28;20471;-91
2024/01/30 03:46:19;;;;;;;16.80;12.43;;;0.50;99.90;;;;;;5077344;28;20082;-91
2024/01/30 03:48:48;;;;;;;18.92;14.57;;;0.40;99.90;;;;;;5078010;28;20020;-90
2024/01/30 03:51:14;;;;;;;16.63;11.80;;;0.40;99.90;;;;;;5045080;28;20564;-93
2024/01/30 03:53:41;;;;;;;18.40;12.85;;;0.40;99.90;;;;;;5057948;28;20028;-89
2024/01/30 03:56:07;;;;;;;19.23;11.63;;;0.40;99.90;;;;;;5078421;28;20024;-90
2024/01/30 03:58:33;;;;;;;19.23;12.00;;;0.40;99.90;;;;;;5085354;28;20028;-92
2024/01/30 04:00:58;;;;;;;18.52;12.55;;;0.40;99.90;;;;;;5042802;28;20020;-90
2024/01/30 04:03:24;;;;;;;19.70;12.25;;;0.30;99.90;;;;;;5080165;28;20035;-91
2024/01/30 04:05:51;;;;;;;22.60;13.13;;;0.30;99.90;;;;;;5079318;28;20051;-91
2024/01/30 04:08:17;;;;;;;25.63;14.23;;;0.30;99.90;;;;;;5052775;28;20108;-90
2024/01/30 04:10:43;;;;;;;21.10;13.57;;;0.40;99.90;;;;;;5080721;28;20056;-92
2024/01/30 04:13:08;;;;;;;17.75;12.65;;;0.30;99.90;;;;;;5071184;28;20077;-94
2024/01/30 04:15:35;;;;;;;19.98;12.18;;;0.40;99.90;;;;;;5075945;28;20026;-91
2024/01/30 04:18:00;;;;;;;18.92;12.75;;;0.40;99.90;;;;;;5080996;28;20055;-91
2024/01/30 04:20:26;;;;;;;18.92;12.40;;;0.30;99.90;;;;;;5079893;28;20052;-90
2024/01/30 04:22:52;;;;;;;23.23;14.07;;;0.20;99.90;;;;;;5075187;28;20024;-90
2024/01/30 04:25:17;;;;;;;17.20;11.90;;;0.20;99.90;;;;;;5074325;28;20024;-91
2024/01/30 04:27:43;;;;;;;28.88;13.30;;;0.20;99.90;;;;;;5081288;28;20028;-91
2024/01/30 04:30:10;;;;;;;18.30;11.98;;;0.20;99.90;;;;;;5073955;28;20028;-90
2024/01/30 04:32:36;;;;;;;17.10;11.02;;;0.20;99.90;;;;;;5064671;28;20471;-90
2024/01/30 04:35:03;;;;;;;19.10;12.23;;;0.20;99.90;;;;;;5054762;28;20029;-90
2024/01/30 04:37:28;;;;;;;18.40;14.30;;;0.20;99.90;;;;;;5076899;28;20479;-89
2024/01/30 04:39:54;;;;;;;19.02;12.23;;;0.10;99.90;;;;;;5076779;28;20039;-90
2024/01/30 04:42:20;;;;;;;17.48;13.40;;;0.10;99.90;;;;;;5076955;28;20031;-91
2024/01/30 04:44:45;;;;;;;16.38;10.27;;;0.10;99.90;;;;;;5082796;28;20384;-91
2024/01/30 04:47:11;;;;;;;19.42;11.85;;;0.10;99.90;;;;;;5078167;28;20093;-89
2024/01/30 04:49:42;;;;;;;17.15;10.30;;;0.20;99.90;;;;;;5056862;28;20111;-91
2024/01/30 04:52:08;;;;;;;18.67;12.07;;;0.20;99.90;;;;;;5058438;28;20036;-92
2024/01/30 04:54:35;;;;;;;15.95;11.73;;;0.10;99.90;;;;;;5077395;28;20051;-90
2024/01/30 04:57:01;;;;;;;17.73;11.93;;;0.10;99.90;;;;;;5059188;28;20028;-90
2024/01/30 04:59:27;;;;;;;19.17;13.27;;;0.20;99.90;;;;;;5073232;28;20032;-90
2024/01/30 05:01:52;;;;;;;18.10;10.93;;;0.30;99.90;;;;;;5049899;28;20028;-91
2024/01/30 05:04:18;;;;;;;18.13;11.50;;;0.20;99.90;;;;;;5078011;28;20130;-91
2024/01/30 05:06:44;;;;;;;15.93;10.50;;;0.30;99.90;;;;;;5079976;28;20020;-90
2024/01/30 05:09:09;;;;;;;14.50;11.18;;;0.30;99.90;;;;;;5063349;28;20023;-89
2024/01/30 05:11:40;;;;;;;15.27;10.55;;;0.30;99.90;;;;;;5059833;28;20403;-90
2024/01/30 05:14:06;;;;;;;16.88;11.93;;;0.20;99.90;;;;;;5059215;28;20082;-90
2024/01/30 05:16:32;;;;;;;20.33;11.23;;;0.10;99.90;;;;;;5078095;28;20078;-91
2024/01/30 05:18:59;;;;;;;18.42;10.88;;;0.10;99.90;;;;;;5062530;28;20115;-90
2024/01/30 05:21:24;;;;;;;17.17;11.20;;;0.10;99.90;;;;;;5080353;28;20044;-91
2024/01/30 05:23:50;;;;;;;22.02;12.90;;;0.00;99.90;;;;;;5063524;28;20025;-89
2024/01/30 05:26:16;;;;;;;16.52;11.23;;;0.00;99.90;;;;;;5059916;28;20036;-92
2024/01/30 05:28:44;;;;;;;14.32;10.35;;;-0.10;99.90;;;;;;5062362;28;20089;-88
2024/01/30 05:31:10;;;;;;;16.10;11.48;;;-0.10;99.90;;;;;;5080962;28;20494;-89
2024/01/30 05:33:36;;;;;;;17.60;11.02;;;-0.20;99.90;;;;;;5080601;28;20024;-89
2024/01/30 05:36:01;;;;;;;17.30;11.00;;;-0.10;99.90;;;;;;5080962;28;20026;-91
2024/01/30 05:38:28;;;;;;;16.90;11.25;;;-0.10;99.90;;;;;;5080188;28;20108;-89
2024/01/30 05:40:54;;;;;;;18.08;12.45;;;-0.10;99.90;;;;;;5063443;28;20047;-90
2024/01/30 05:43:19;;;;;;;17.23;11.60;;;-0.10;99.90;;;;;;5048441;28;20440;-90
2024/01/30 05:45:45;;;;;;;18.52;11.77;;;0.00;99.90;;;;;;5059567;28;20070;-89
2024/01/30 05:48:11;;;;;;;18.17;11.57;;;0.00;99.90;;;;;;5053031;28;20481;-90
2024/01/30 05:50:36;;;;;;;21.75;19.45;;;0.00;99.90;;;;;;5062153;28;20028;-89
2024/01/30 05:53:02;;;;;;;19.98;16.25;;;0.00;99.90;;;;;;5074584;28;20364;-88
2024/01/30 05:55:28;;;;;;;19.13;11.80;;;0.00;99.90;;;;;;5078670;28;20559;-91
2024/01/30 05:57:54;;;;;;;18.83;13.50;;;0.10;99.90;;;;;;5059406;28;20017;-89
2024/01/30 06:00:19;;;;;;;20.10;13.43;;;0.10;99.90;;;;;;5058762;28;20025;-90
2024/01/30 06:02:45;;;;;;;21.52;14.70;;;0.10;99.90;;;;;;5073193;28;20087;-89
2024/01/30 06:05:11;;;;;;;21.02;12.30;;;0.10;99.90;;;;;;5063138;28;20081;-91
2024/01/30 06:07:37;;;;;;;21.30;12.82;;;0.10;99.90;;;;;;5080960;28;20387;-89
2024/01/30 06:10:03;;;;;;;24.95;13.85;;;0.00;99.90;;;;;;5081556;28;20040;-90
2024/01/30 06:12:32;;;;;;;16.52;11.30;;;0.00;99.90;;;;;;5059560;28;20491;-90
2024/01/30 06:14:59;;;;;;;19.02;13.52;;;0.00;99.90;;;;;;5082950;28;20025;-90
2024/01/30 06:17:25;;;;;;;20.17;13.77;;;0.00;99.90;;;;;;5035930;28;20033;-89
2024/01/30 06:19:50;;;;;;;24.08;14.85;;;0.00;99.90;;;;;;5042796;28;20087;-90
2024/01/30 06:22:16;;;;;;;19.83;13.95;;;0.00;99.90;;;;;;5059129;28;20029;-89
2024/01/30 06:24:44;;;;;;;20.65;14.32;;;0.00;99.90;;;;;;5077439;28;20111;-89
2024/01/30 06:27:10;;;;;;;18.40;12.85;;;0.00;99.90;;;;;;5079772;28;20462;-89
2024/01/30 06:29:36;;;;;;;22.45;14.00;;;0.10;99.90;;;;;;5077663;28;20039;-90
2024/01/30 06:32:02;;;;;;;24.50;13.85;;;0.00;99.90;;;;;;5058043;28;20029;-90
2024/01/30 06:34:27;;;;;;;21.95;13.75;;;0.00;99.90;;;;;;5074915;28;20206;-91
2024/01/30 06:36:53;;;;;;;22.35;13.68;;;0.00;99.90;;;;;;5078947;28;20082;-91
2024/01/30 06:39:19;;;;;;;26.75;15.30;;;0.00;99.90;;;;;;5078744;28;20107;-89
2024/01/30 06:41:46;;;;;;;21.85;14.15;;;0.00;99.90;;;;;;5075414;28;20017;-91
2024/01/30 06:44:12;;;;;;;22.55;15.07;;;0.00;99.90;;;;;;5063966;28;20082;-89
2024/01/30 06:46:41;;;;;;;24.33;14.50;;;0.00;99.90;;;;;;5061145;28;20471;-91
2024/01/30 06:49:07;;;;;;;24.23;15.50;;;0.00;99.90;;;;;;5079674;28;20020;-89
2024/01/30 06:51:33;;;;;;;19.13;13.02;;;-0.10;99.90;;;;;;5082121;28;20036;-89
2024/01/30 06:53:59;;;;;;;22.38;13.23;;;-0.10;99.90;;;;;;5079928;28;20031;-89
2024/01/30 06:56:25;;;;;;;28.50;15.98;;;-0.20;99.90;;;;;;5046520;28;20097;-92
2024/01/30 06:58:51;;;;;;;27.63;15.55;;;-0.10;99.90;;;;;;5061015;28;20063;-91
2024/01/30 07:01:17;;;;;;;29.63;17.55;;;-0.20;99.90;;;;;;5061004;28;20059;-92
2024/01/30 07:03:43;;;;;;;34.28;20.08;;;-0.30;99.90;;;;;;5055509;28;20032;-90
2024/01/30 07:06:17;;;;;;;29.50;16.55;;;-0.40;99.90;;;;;;5031884;28;21222;-89
2024/01/30 07:08:46;;;;;;;29.25;16.70;;;-0.40;99.90;;;;;;5056135;28;20032;-91
2024/01/30 07:11:25;;;;;;;24.63;16.88;;;-0.40;99.90;;;;;;5073497;28;20032;-90
2024/01/30 07:13:51;;;;;;;29.33;16.33;;;-0.40;99.90;;;;;;5050876;28;20151;-90
2024/01/30 07:16:17;;;;;;;26.65;15.75;;;-0.40;99.90;;;;;;5054727;28;20676;-89
2024/01/30 07:18:47;;;;;;;24.77;14.75;;;-0.30;99.90;;;;;;5066972;28;20034;-91
2024/01/30 07:21:15;;;;;;;18.98;13.23;;;-0.20;99.90;;;;;;5077086;28;20035;-89
2024/01/30 07:23:42;;;;;;;21.60;12.38;;;-0.20;99.90;;;;;;5049604;28;20082;-91
2024/01/30 07:26:09;;;;;;;21.63;14.63;;;-0.10;99.90;;;;;;5045755;28;20028;-90
2024/01/30 07:28:35;;;;;;;23.40;13.90;;;-0.10;99.90;;;;;;5055568;28;20044;-90
2024/01/30 07:31:02;;;;;;;15.63;11.73;;;0.00;99.90;;;;;;5055544;28;20604;-90
2024/01/30 07:33:27;;;;;;;19.08;12.75;;;0.10;99.90;;;;;;5056819;28;20036;-92
2024/01/30 07:35:53;;;;;;;22.75;12.40;;;0.10;99.90;;;;;;5046452;28;20024;-91
2024/01/30 07:38:20;;;;;;;19.92;12.65;;;0.20;99.90;;;;;;5053550;28;20028;-91
2024/01/30 07:40:46;;;;;;;22.83;12.63;;;0.30;99.90;;;;;;5054422;28;20500;-89
2024/01/30 07:43:11;;;;;;;24.20;14.82;;;0.30;99.90;;;;;;5052115;28;20035;-91
2024/01/30 07:45:38;;;;;;;19.38;13.82;;;0.30;99.90;;;;;;5051444;28;20032;-89
2024/01/30 07:48:07;;;;;;;20.58;13.23;;;0.40;99.90;;;;;;5055597;28;20023;-93
2024/01/30 07:50:33;;;;;;;26.85;13.68;;;0.40;99.90;;;;;;5054282;28;20548;-92
2024/01/30 07:53:01;;;;;;;45.28;16.70;;;0.40;99.90;;;;;;5045134;28;20032;-91
2024/01/30 07:55:31;;;;;;;28.20;16.33;;;0.50;99.90;;;;;;5072782;28;20104;-90
2024/01/30 07:58:00;;;;;;;33.65;14.95;;;0.50;99.90;;;;;;5047202;28;20021;-91
2024/01/30 08:00:28;;;;;;;22.27;14.02;;;0.60;99.90;;;;;;5071584;28;20040;-89
2024/01/30 08:02:55;;;;;;;24.58;13.75;;;0.60;99.90;;;;;;5055744;28;20032;-90
2024/01/30 08:05:24;;;;;;;25.52;15.25;;;0.60;99.90;;;;;;5047729;28;20123;-90
2024/01/30 08:07:53;;;;;;;23.98;14.48;;;0.70;99.90;;;;;;5074319;28;20052;-90
2024/01/30 08:10:20;;;;;;;27.52;12.60;;;0.70;99.90;;;;;;5049318;28;20039;-90
2024/01/30 08:12:45;;;;;;;25.95;13.15;;;0.80;99.90;;;;;;5053761;28;20045;-92
2024/01/30 08:15:13;;;;;;;19.35;13.18;;;0.90;99.90;;;;;;5051833;28;20078;-92
2024/01/30 08:17:39;;;;;;;25.88;14.80;;;0.90;99.90;;;;;;5073602;28;20031;-90
2024/01/30 08:20:05;;;;;;;31.75;16.35;;;1.10;99.90;;;;;;5062162;28;20029;-91
2024/01/30 08:22:31;;;;;;;26.98;15.23;;;1.20;99.90;;;;;;5069059;28;20505;-90
2024/01/30 08:24:57;;;;;;;25.55;15.32;;;1.30;99.90;;;;;;5058483;28;20028;-89
2024/01/30 08:27:23;;;;;;;25.40;15.93;;;1.40;99.90;;;;;;5048071;28;20479;-92
2024/01/30 08:29:50;;;;;;;24.88;14.95;;;1.50;99.90;;;;;;5049168;28;20029;-90
2024/01/30 08:32:15;;;;;;;24.70;16.13;;;1.60;99.90;;;;;;5067092;28;20104;-91
2024/01/30 08:34:41;;;;;;;23.27;16.20;;;1.70;99.90;;;;;;5069609;28;20037;-91
2024/01/30 08:37:07;;;;;;;31.23;19.73;;;1.80;99.90;;;;;;5068921;28;20048;-89
2024/01/30 08:39:33;;;;;;;24.25;15.85;;;1.90;99.90;;;;;;5072376;28;20024;-89
2024/01/30 08:41:58;;;;;;;29.80;18.88;;;1.90;99.90;;;;;;5069271;28;20101;-90
2024/01/30 08:44:24;;;;;;;25.40;16.83;;;2.00;99.90;;;;;;5051327;28;20455;-90
2024/01/30 08:46:50;;;;;;;28.42;15.52;;;2.10;99.90;;;;;;5050794;28;20028;-90
2024/01/30 08:49:20;;;;;;;26.92;15.63;;;2.10;99.90;;;;;;5069246;28;20103;-90
2024/01/30 08:51:46;;;;;;;23.42;14.60;;;2.10;99.90;;;;;;5068921;28;20044;-89
2024/01/30 08:54:11;;;;;;;23.85;13.63;;;2.20;99.90;;;;;;5072498;28;20036;-89
2024/01/30 08:56:37;;;;;;;21.00;11.93;;;2.20;99.90;;;;;;5073503;28;20039;-88
2024/01/30 08:59:02;;;;;;;17.67;10.82;;;2.30;99.90;;;;;;5051389;28;20335;-89
2024/01/30 09:01:28;;;;;;;16.63;12.18;;;2.30;99.90;;;;;;5054952;28;20112;-90
2024/01/30 09:03:54;;;;;;;20.48;11.35;;;2.40;99.90;;;;;;5072006;28;20024;-91
2024/01/30 09:06:19;;;;;;;19.85;11.80;;;2.40;99.90;;;;;;5071779;28;20026;-90
2024/01/30 09:08:45;;;;;;;18.60;10.15;;;2.40;99.90;;;;;;5051367;28;20024;-88
2024/01/30 09:11:15;;;;;;;19.58;12.25;;;2.50;99.90;;;;;;5047966;28;20067;-91
2024/01/30 09:13:41;;;;;;;21.17;12.10;;;2.60;99.90;;;;;;5069671;28;20017;-89
2024/01/30 09:16:07;;;;;;;26.70;15.15;;;2.70;99.90;;;;;;5069218;28;20538;-90
2024/01/30 09:18:33;;;;;;;19.98;11.43;;;2.80;99.90;;;;;;5049112;28;20052;-91
2024/01/30 09:20:59;;;;;;;23.25;13.10;;;2.90;99.90;;;;;;5068471;28;20017;-89
2024/01/30 09:23:25;;;;;;;19.33;14.88;;;3.00;99.90;;;;;;5052036;28;20565;-91
2024/01/30 09:25:50;;;;;;;20.33;12.40;;;3.10;99.90;;;;;;5071036;28;20134;-89
2024/01/30 09:28:17;;;;;;;23.98;15.07;;;3.10;99.90;;;;;;5048880;28;20091;-91
2024/01/30 09:30:43;;;;;;;23.48;14.68;;;3.30;99.90;;;;;;5071337;28;20036;-90
2024/01/30 09:33:09;;;;;;;24.33;15.95;;;3.40;99.90;;;;;;5074159;28;20043;-90
2024/01/30 09:35:36;;;;;;;23.92;16.67;;;3.50;99.90;;;;;;5074938;28;20432;-91
2024/01/30 09:38:02;;;;;;;28.35;16.15;;;3.60;99.90;;;;;;5055029;28;20033;-90
2024/01/30 09:40:28;;;;;;;25.77;15.80;;;3.70;99.90;;;;;;5071354;28;20064;-89
2024/01/30 09:42:54;;;;;;;25.02;14.30;;;3.80;99.90;;;;;;5054567;28;20374;-90
2024/01/30 09:45:24;;;;;;;26.02;15.55;;;3.90;99.90;;;;;;5073499;28;20086;-89
2024/01/30 09:47:49;;;;;;;27.10;16.08;;;4.00;99.90;;;;;;5071689;28;20125;-89
2024/01/30 09:50:16;;;;;;;27.08;15.55;;;4.10;99.90;;;;;;5071141;28;20064;-90
2024/01/30 09:52:44;;;;;;;25.67;16.77;;;4.20;99.90;;;;;;5041398;28;20103;-91
2024/01/30 09:55:10;;;;;;;33.10;19.27;;;4.20;99.90;;;;;;5069956;28;20475;-90
2024/01/30 09:57:36;;;;;;;34.33;20.75;;;4.40;99.90;;;;;;5056819;28;20032;-91
2024/01/30 10:00:04;;;;;;;37.58;22.23;;;4.50;99.90;;;;;;5050347;28;20033;-88
2024/01/30 10:02:33;;;;;;;34.42;20.73;;;4.60;99.90;;;;;;5045605;28;20032;-90
2024/01/30 10:05:00;;;;;;;37.10;21.55;;;4.80;99.90;;;;;;5072994;28;20021;-91
2024/01/30 10:07:26;;;;;;;34.13;21.50;;;4.90;99.90;;;;;;5074865;28;20037;-89
2024/01/30 10:09:53;;;;;;;32.97;21.40;;;5.00;99.90;;;;;;5052707;28;20045;-88
2024/01/30 10:12:19;;;;;;;34.15;19.52;;;5.00;99.90;;;;;;5070529;28;20106;-89
2024/01/30 10:14:44;;;;;;;35.25;20.30;;;5.00;99.90;;;;;;5071016;28;20032;-88
2024/01/30 10:17:11;;;;;;;34.72;21.20;;;5.10;99.90;;;;;;5055303;28;20028;-91
2024/01/30 10:19:38;;;;;;;30.67;20.65;;;5.10;99.90;;;;;;5069594;28;20092;-89
2024/01/30 10:22:04;;;;;;;32.35;21.05;;;5.20;99.90;;;;;;5074769;28;20048;-89
2024/01/30 10:24:29;;;;;;;38.28;21.40;;;5.20;99.90;;;;;;5070975;28;20021;-89
2024/01/30 10:26:56;;;;;;;33.85;21.30;;;5.30;99.90;;;;;;5055174;28;20024;-91
2024/01/30 10:29:21;;;;;;;33.10;21.27;;;5.40;99.90;;;;;;5072919;28;20055;-89
2024/01/30 10:32:01;;;;;;;35.90;21.83;;;5.30;99.90;;;;;;5074407;28;20028;-90
2024/01/30 10:34:27;;;;;;;36.30;20.52;;;5.40;99.90;;;;;;5074197;28;20113;-88
2024/01/30 10:37:07;;;;;;;38.15;21.73;;;5.50;99.90;;;;;;5069163;28;20043;-90
2024/01/30 10:39:41;;;;;;;36.08;22.33;;;5.60;99.90;;;;;;5048181;28;20032;-91
2024/01/30 10:42:12;;;;;;;37.50;21.98;;;5.60;99.90;;;;;;5048861;28;20491;-89
2024/01/30 10:44:49;;;;;;;35.65;22.50;;;5.70;99.90;;;;;;5073651;28;20039;-90
2024/01/30 10:47:22;;;;;;;35.35;21.80;;;5.80;99.90;;;;;;5053413;28;20086;-91
2024/01/30 10:49:48;;;;;;;35.28;22.20;;;5.80;99.90;;;;;;5070570;28;20114;-89
2024/01/30 10:52:16;;;;;;;34.85;20.40;;;5.90;99.10;;;;;;5072212;28;20032;-90
2024/01/30 10:54:45;;;;;;;35.17;20.00;;;6.10;99.00;;;;;;5073177;28;20047;-91
2024/01/30 10:57:12;;;;;;;33.33;20.58;;;6.10;97.80;;;;;;5071962;28;20036;-89
2024/01/30 10:59:38;;;;;;;31.92;21.25;;;6.20;97.10;;;;;;5054439;28;20068;-90
2024/01/30 11:02:05;;;;;;;36.72;19.67;;;6.30;96.60;;;;;;5052994;28;20021;-88
2024/01/30 11:04:38;;;;;;;35.83;20.75;;;6.30;96.10;;;;;;5077791;28;20034;-91
2024/01/30 11:07:17;;;;;;;31.67;19.92;;;6.50;96.70;;;;;;5051588;28;20037;-90
2024/01/30 11:09:54;;;;;;;33.15;21.77;;;6.70;97.50;;;;;;5069881;28;20055;-89
2024/01/30 11:12:26;;;;;;;30.10;20.30;;;6.80;96.50;;;;;;5073410;28;20039;-90
2024/01/30 11:15:13;;;;;;;32.05;22.85;;;6.80;94.30;;;;;;5054183;28;20035;-88
2024/01/30 11:17:42;;;;;;;;;;;6.80;95.50;;;;;;5072879;28;20182;-90
2024/01/30 11:20:14;;;;;;;33.10;19.65;;;6.80;96.50;;;;;;5070078;28;19916;-89
2024/01/30 11:22:42;;;;;;;35.08;23.13;;;6.90;96.90;;;;;;5049722;28;20029;-90
2024/01/30 11:25:12;;;;;;;36.10;22.10;;;6.90;96.10;;;;;;5052555;28;20025;-91
2024/01/30 11:27:38;;;;;;;34.30;22.60;;;6.90;95.90;;;;;;5051831;28;20027;-90
2024/01/30 11:30:04;;;;;;;32.20;23.13;;;6.90;96.50;;;;;;5069547;28;20073;-89
2024/01/30 11:32:30;;;;;;;37.53;24.02;;;7.00;95.80;;;;;;5071296;28;20430;-88
2024/01/30 11:34:56;;;;;;;36.65;22.83;;;7.10;95.20;;;;;;5050888;28;20155;-88
2024/01/30 11:37:26;;;;;;;35.17;22.40;;;7.20;94.40;;;;;;5074626;28;20041;-91
2024/01/30 11:39:53;;;;;;;37.10;21.30;;;7.10;94.00;;;;;;5086883;28;20048;-91
2024/01/30 11:42:20;;;;;;;36.20;22.38;;;7.50;92.30;;;;;;5070263;28;20012;-91
2024/01/30 11:44:48;;;;;;;30.65;22.02;;;7.80;90.70;;;;;;5088526;28;20012;-91
2024/01/30 11:47:14;;;;;;;34.97;24.25;;;8.00;89.00;;;;;;5080091;28;20023;-88
2024/01/30 11:49:40;;;;;;;34.85;20.88;;;8.20;88.40;;;;;;5070061;28;20028;-90
2024/01/30 11:52:06;;;;;;;35.33;22.65;;;8.40;87.50;;;;;;5072444;28;20046;-90
2024/01/30 11:54:32;;;;;;;30.73;20.65;;;8.30;88.50;;;;;;5073062;28;20032;-90
2024/01/30 11:56:58;;;;;;;33.22;21.48;;;8.50;86.90;;;;;;5075603;28;20035;-90
2024/01/30 11:59:24;;;;;;;36.47;20.92;;;8.50;86.80;;;;;;5074059;28;20060;-89
2024/01/30 12:01:52;;;;;;;31.25;20.30;;;8.80;86.10;;;;;;5075457;28;20056;-90
2024/01/30 12:04:18;;;;;;;31.27;20.13;;;9.00;84.80;;;;;;5076083;28;20111;-91
2024/01/30 12:06:44;;;;;;;35.08;20.60;;;8.90;84.60;;;;;;5077936;28;20326;-91
2024/01/30 12:09:12;;;;;;;29.08;19.75;;;9.00;85.40;;;;;;5076505;28;20096;-88
2024/01/30 12:11:44;;;;;;;;;;;8.90;84.60;;;;;;5076786;28;20103;-90
2024/01/30 12:14:11;;;;;;;32.53;19.27;;;9.20;85.70;;;;;;5066384;28;20482;-91
2024/01/30 12:16:36;;;;;;;29.00;19.65;;;9.20;84.50;;;;;;5072846;28;20494;-90
2024/01/30 12:19:02;;;;;;;29.80;21.98;;;9.40;84.80;;;;;;5045291;28;20044;-89
2024/01/30 12:21:29;;;;;;;30.20;21.25;;;9.30;84.30;;;;;;5069088;28;20021;-90
2024/01/30 12:23:55;;;;;;;28.15;19.08;;;9.30;84.70;;;;;;5068906;28;20036;-92
2024/01/30 12:26:21;;;;;;;29.50;20.95;;;9.20;84.60;;;;;;5050036;28;20031;-92
2024/01/30 12:28:50;;;;;;;32.50;20.50;;;9.20;85.70;;;;;;5069350;28;20770;-92
2024/01/30 12:31:16;;;;;;;26.50;17.00;;;9.40;84.80;;;;;;5065632;28;20044;-91
2024/01/30 12:33:42;;;;;;;30.50;20.30;;;9.30;84.20;;;;;;5065557;28;20048;-92